Time;durP1;ratioP1;P1;durP2;ratioP2;P2;SDS_P1;SDS_P2;PMS_P1;PMS_P2;Temp;Humidity;BMP_temperature;BMP_pressure;BME280_temperature;BME280_humidity;BME280_pressure;Samples;Min_cycle;Max_cycle;Signal;HPM_P1;HPM_P2
2021/03/17 00:00:49;;;;;;;1.60;1.40;;;6.10;80.60;;;;;;4991992;28;20517;-89
2021/03/17 00:03:15;;;;;;;1.98;1.73;;;6.10;80.70;;;;;;4991651;28;20023;-89
2021/03/17 00:05:42;;;;;;;1.95;1.70;;;6.00;80.70;;;;;;4992120;28;20037;-89
2021/03/17 00:08:08;;;;;;;1.50;1.40;;;6.00;80.80;;;;;;4992294;28;20035;-91
2021/03/17 00:10:36;;;;;;;1.83;1.33;;;6.00;80.90;;;;;;4992454;28;20025;-90
2021/03/17 00:13:04;;;;;;;1.75;1.50;;;6.00;80.90;;;;;;4992000;28;20026;-90
2021/03/17 00:15:32;;;;;;;1.90;1.63;;;6.00;81.00;;;;;;4995364;28;20014;-91
2021/03/17 00:17:58;;;;;;;1.50;1.40;;;5.90;80.90;;;;;;4989407;28;20084;-90
2021/03/17 00:20:28;;;;;;;1.63;1.30;;;5.90;81.50;;;;;;4995690;28;20018;-91
2021/03/17 00:22:55;;;;;;;1.30;1.20;;;5.90;80.90;;;;;;4995516;28;20080;-89
2021/03/17 00:25:24;;;;;;;1.85;1.35;;;5.90;80.90;;;;;;4995485;28;20468;-90
2021/03/17 00:27:49;;;;;;;1.50;1.40;;;5.90;80.90;;;;;;4995122;28;20023;-90
2021/03/17 00:30:16;;;;;;;1.65;1.30;;;5.90;80.90;;;;;;4995923;28;20030;-90
2021/03/17 00:32:41;;;;;;;1.50;1.40;;;5.90;80.90;;;;;;4989376;28;20106;-90
2021/03/17 00:35:08;;;;;;;1.50;1.38;;;5.90;80.90;;;;;;4988762;28;20068;-90
2021/03/17 00:37:34;;;;;;;1.48;1.38;;;5.90;81.00;;;;;;4993512;28;20493;-87
2021/03/17 00:39:59;;;;;;;1.48;1.38;;;5.90;80.90;;;;;;4994900;28;20072;-87
2021/03/17 00:42:25;;;;;;;1.50;1.40;;;5.80;80.80;;;;;;4996331;28;20053;-88
2021/03/17 00:44:50;;;;;;;1.85;1.67;;;5.90;80.90;;;;;;4999866;28;20026;-88
2021/03/17 00:47:16;;;;;;;1.50;1.40;;;5.80;80.80;;;;;;5002682;28;20049;-90
2021/03/17 00:49:41;;;;;;;1.65;1.55;;;5.80;80.90;;;;;;5003323;28;20104;-89
2021/03/17 00:52:07;;;;;;;2.38;2.00;;;5.80;80.90;;;;;;4996865;28;20651;-89
2021/03/17 00:54:32;;;;;;;1.50;1.40;;;5.80;81.00;;;;;;4993900;28;20014;-88
2021/03/17 00:56:58;;;;;;;1.67;1.50;;;5.80;81.00;;;;;;4995560;28;20030;-88
2021/03/17 00:59:24;;;;;;;1.88;1.67;;;5.80;81.10;;;;;;4994894;28;20034;-91
2021/03/17 01:01:49;;;;;;;2.03;1.42;;;5.80;81.00;;;;;;4994143;28;20053;-86
2021/03/17 01:04:15;;;;;;;1.85;1.67;;;5.80;81.00;;;;;;4996273;28;20098;-87
2021/03/17 01:06:41;;;;;;;1.70;1.52;;;5.80;81.00;;;;;;4996143;28;20044;-87
2021/03/17 01:09:06;;;;;;;2.63;2.10;;;5.80;81.10;;;;;;4996414;28;20018;-87
2021/03/17 01:11:32;;;;;;;1.60;1.50;;;5.80;81.00;;;;;;4997449;28;20031;-87
2021/03/17 01:13:57;;;;;;;1.77;1.65;;;5.80;81.10;;;;;;4997217;28;20026;-88
2021/03/17 01:16:23;;;;;;;1.50;1.40;;;5.80;81.00;;;;;;4997883;28;20077;-87
2021/03/17 01:18:49;;;;;;;2.30;1.70;;;5.80;81.10;;;;;;4994283;28;20026;-89
2021/03/17 01:21:14;;;;;;;2.15;1.90;;;5.80;81.10;;;;;;4994811;28;20026;-89
2021/03/17 01:23:40;;;;;;;1.65;1.55;;;5.80;81.20;;;;;;4993985;28;20022;-89
2021/03/17 01:26:05;;;;;;;2.70;2.10;;;5.80;81.30;;;;;;4993905;28;20030;-89
2021/03/17 01:28:31;;;;;;;1.60;1.50;;;5.80;82.00;;;;;;4994581;28;20026;-89
2021/03/17 01:30:59;;;;;;;1.65;1.52;;;5.80;81.30;;;;;;4994697;28;20022;-86
2021/03/17 01:33:26;;;;;;;1.40;1.30;;;5.80;81.40;;;;;;4992356;28;20030;-87
2021/03/17 01:35:53;;;;;;;1.85;1.60;;;5.80;81.50;;;;;;4983804;28;20250;-87
2021/03/17 01:38:18;;;;;;;1.40;1.30;;;5.80;81.40;;;;;;4984794;28;20049;-88
2021/03/17 01:40:45;;;;;;;1.50;1.40;;;5.90;81.40;;;;;;4977578;28;20030;-86
2021/03/17 01:43:12;;;;;;;1.88;1.70;;;5.90;81.30;;;;;;4992396;28;20037;-87
2021/03/17 01:45:38;;;;;;;2.10;1.75;;;5.90;81.40;;;;;;4982762;28;20035;-89
2021/03/17 01:48:05;;;;;;;2.17;1.85;;;5.90;81.40;;;;;;4994352;28;20034;-89
2021/03/17 01:50:34;;;;;;;1.77;1.65;;;5.90;81.40;;;;;;4993228;28;20092;-88
2021/03/17 01:53:06;;;;;;;1.60;1.50;;;5.90;81.40;;;;;;4991921;28;20030;-89
2021/03/17 01:55:32;;;;;;;1.90;1.65;;;5.90;81.40;;;;;;4993555;28;20022;-89
2021/03/17 01:57:57;;;;;;;1.60;1.50;;;5.90;81.40;;;;;;4993793;28;20106;-91
2021/03/17 02:00:23;;;;;;;1.48;1.35;;;5.90;81.40;;;;;;4994679;28;20034;-91
2021/03/17 02:02:52;;;;;;;1.60;1.50;;;5.90;81.50;;;;;;4990242;28;20027;-90
2021/03/17 02:05:21;;;;;;;1.50;1.40;;;5.90;81.50;;;;;;4978640;28;20074;-91
2021/03/17 02:07:46;;;;;;;2.15;1.80;;;5.90;81.50;;;;;;4993206;28;20030;-92
2021/03/17 02:10:14;;;;;;;2.72;1.80;;;5.90;81.40;;;;;;4994681;28;20023;-92
2021/03/17 02:13:05;;;;;;;1.88;1.63;;;5.90;81.50;;;;;;4993805;28;20096;-88
2021/03/17 02:15:51;;;;;;;2.42;2.00;;;5.90;81.50;;;;;;4992565;28;20026;-91
2021/03/17 02:18:40;;;;;;;2.42;2.22;;;5.90;81.70;;;;;;4993842;28;20033;-91
2021/03/17 02:21:36;;;;;;;2.00;1.80;;;5.90;81.80;;;;;;4974629;28;20031;-90
2021/03/17 02:24:49;;;;;;;2.00;1.80;;;5.80;81.90;;;;;;4987719;28;20121;-91
2021/03/17 02:27:24;;;;;;;1.92;1.80;;;5.90;82.00;;;;;;4948052;28;20052;-91
2021/03/17 02:30:23;;;;;;;2.50;2.30;;;5.90;81.90;;;;;;4993542;28;20038;-89
2021/03/17 02:32:54;;;;;;;2.17;1.98;;;5.90;82.00;;;;;;4981161;28;20501;-91
2021/03/17 02:35:25;;;;;;;2.58;1.90;;;5.90;82.00;;;;;;4992652;28;20034;-92
2021/03/17 02:37:51;;;;;;;2.58;2.03;;;5.90;82.10;;;;;;4993015;28;20113;-91
2021/03/17 02:40:29;;;;;;;2.60;2.08;;;5.90;82.10;;;;;;4993652;28;20037;-91
2021/03/17 02:43:08;;;;;;;2.03;1.83;;;5.90;82.10;;;;;;4993308;28;20026;-92
2021/03/17 02:45:36;;;;;;;2.08;1.88;;;5.90;82.10;;;;;;4991528;28;20039;-93
2021/03/17 02:48:03;;;;;;;2.45;2.13;;;6.00;82.20;;;;;;4993541;28;20026;-92
2021/03/17 02:50:32;;;;;;;1.60;1.50;;;6.00;82.20;;;;;;4993614;28;20022;-91
2021/03/17 02:53:00;;;;;;;2.45;2.25;;;6.00;82.20;;;;;;4991871;28;20057;-90
2021/03/17 02:55:36;;;;;;;2.10;1.90;;;6.00;82.20;;;;;;4989651;28;20042;-91
2021/03/17 02:58:01;;;;;;;2.45;2.20;;;6.00;82.30;;;;;;4992992;28;20042;-92
2021/03/17 03:00:31;;;;;;;3.05;2.10;;;6.10;82.30;;;;;;4992191;28;20058;-91
2021/03/17 03:03:00;;;;;;;2.40;2.20;;;6.10;82.40;;;;;;4992923;28;20018;-90
2021/03/17 03:05:27;;;;;;;1.70;1.60;;;6.10;82.30;;;;;;4992985;28;20034;-90
2021/03/17 03:08:00;;;;;;;2.13;1.95;;;6.10;82.40;;;;;;4992927;28;20026;-91
2021/03/17 03:10:28;;;;;;;2.45;2.15;;;6.10;82.40;;;;;;4992866;28;20021;-89
2021/03/17 03:12:55;;;;;;;1.73;1.63;;;6.10;82.50;;;;;;4993168;28;20030;-90
2021/03/17 03:15:24;;;;;;;2.10;1.90;;;6.10;82.60;;;;;;4992950;28;20090;-90
2021/03/17 03:17:50;;;;;;;2.20;1.70;;;6.10;82.50;;;;;;4993226;28;20033;-91
2021/03/17 03:20:20;;;;;;;1.73;1.58;;;6.10;82.50;;;;;;4992062;28;20019;-91
2021/03/17 03:22:47;;;;;;;2.53;1.95;;;6.10;82.60;;;;;;4992549;28;20544;-90
2021/03/17 03:25:14;;;;;;;1.67;1.58;;;6.10;82.50;;;;;;4992761;28;20019;-90
2021/03/17 03:27:41;;;;;;;1.52;1.42;;;6.10;82.60;;;;;;4993004;28;20034;-90
2021/03/17 03:30:09;;;;;;;2.20;1.90;;;6.20;82.60;;;;;;4993042;28;20110;-91
2021/03/17 03:32:35;;;;;;;1.70;1.55;;;6.20;82.50;;;;;;4992359;28;20109;-91
2021/03/17 03:35:01;;;;;;;2.25;2.05;;;6.20;82.50;;;;;;4992933;28;20497;-91
2021/03/17 03:37:26;;;;;;;1.60;1.50;;;6.20;82.50;;;;;;4992672;28;20023;-90
2021/03/17 03:39:52;;;;;;;1.52;1.42;;;6.30;82.60;;;;;;4992287;28;20027;-92
2021/03/17 03:42:17;;;;;;;1.60;1.50;;;6.30;82.50;;;;;;4991709;28;20045;-92
2021/03/17 03:44:43;;;;;;;1.50;1.40;;;6.30;82.50;;;;;;4991920;28;20092;-92
2021/03/17 03:47:09;;;;;;;1.60;1.50;;;6.30;82.50;;;;;;4992997;28;20069;-92
2021/03/17 03:49:34;;;;;;;1.83;1.60;;;6.30;82.50;;;;;;4996569;28;20017;-91
2021/03/17 03:52:07;;;;;;;1.55;1.45;;;6.30;82.50;;;;;;4995423;28;20428;-91
2021/03/17 03:54:58;;;;;;;1.73;1.60;;;6.30;82.50;;;;;;4995743;28;20393;-91
2021/03/17 03:57:31;;;;;;;1.30;1.20;;;6.30;82.50;;;;;;4988225;28;20026;-91
2021/03/17 04:00:03;;;;;;;1.95;1.75;;;6.30;82.60;;;;;;4996179;28;20045;-90
2021/03/17 04:02:36;;;;;;;1.55;1.45;;;6.30;82.60;;;;;;4995604;28;20382;-91
2021/03/17 04:05:03;;;;;;;1.52;1.42;;;6.30;82.60;;;;;;4995538;28;20026;-91
2021/03/17 04:07:32;;;;;;;1.40;1.30;;;6.30;82.60;;;;;;4994977;28;20176;-91
2021/03/17 04:10:04;;;;;;;2.10;1.52;;;6.30;82.70;;;;;;4975997;28;20107;-91
2021/03/17 04:12:34;;;;;;;2.00;1.80;;;6.40;82.70;;;;;;4991059;28;20025;-91
2021/03/17 04:15:01;;;;;;;1.65;1.55;;;6.30;82.70;;;;;;4991079;28;20023;-91
2021/03/17 04:17:55;;;;;;;1.65;1.55;;;6.30;82.70;;;;;;4995965;28;20552;-91
2021/03/17 04:20:31;;;;;;;1.50;1.40;;;6.30;82.90;;;;;;4996206;28;20034;-92
2021/03/17 04:22:57;;;;;;;1.30;1.20;;;6.30;82.80;;;;;;4995909;28;20113;-91
2021/03/17 04:25:26;;;;;;;1.60;1.50;;;6.30;82.80;;;;;;4995882;28;20026;-89
2021/03/17 04:27:52;;;;;;;2.00;1.52;;;6.30;82.90;;;;;;4995578;28;20074;-88
2021/03/17 04:30:20;;;;;;;1.40;1.30;;;6.30;82.90;;;;;;4994688;28;20417;-89
2021/03/17 04:32:47;;;;;;;1.65;1.55;;;6.30;82.90;;;;;;4994601;28;20457;-89
2021/03/17 04:35:14;;;;;;;1.50;1.40;;;6.30;82.90;;;;;;4995092;28;20037;-89
2021/03/17 04:37:43;;;;;;;1.40;1.30;;;6.30;82.90;;;;;;4993774;28;20026;-89
2021/03/17 04:40:10;;;;;;;1.00;1.00;;;6.30;83.00;;;;;;4994773;28;20468;-89
2021/03/17 04:42:36;;;;;;;1.30;1.20;;;6.30;82.90;;;;;;4993324;28;20030;-90
2021/03/17 04:45:02;;;;;;;1.48;1.38;;;6.40;82.90;;;;;;4993690;28;20041;-89
2021/03/17 04:47:29;;;;;;;1.30;1.20;;;6.40;82.90;;;;;;4995177;28;20030;-90
2021/03/17 04:49:55;;;;;;;1.38;1.27;;;6.40;82.80;;;;;;4995160;28;20022;-90
2021/03/17 04:52:23;;;;;;;1.75;1.63;;;6.40;82.80;;;;;;4994690;28;20034;-90
2021/03/17 04:54:49;;;;;;;1.77;1.40;;;6.40;82.80;;;;;;4994490;28;20105;-89
2021/03/17 04:57:21;;;;;;;1.60;1.50;;;6.50;82.90;;;;;;4993896;28;20533;-88
2021/03/17 04:59:47;;;;;;;1.93;1.60;;;6.40;82.80;;;;;;4993982;28;20021;-88
2021/03/17 05:02:16;;;;;;;1.52;1.30;;;6.40;82.90;;;;;;4992144;28;20040;-89
2021/03/17 05:04:43;;;;;;;1.70;1.60;;;6.40;82.90;;;;;;4994408;28;20042;-88
2021/03/17 05:07:11;;;;;;;1.75;1.30;;;6.40;82.90;;;;;;4992533;28;20393;-88
2021/03/17 05:09:39;;;;;;;1.50;1.40;;;6.40;83.00;;;;;;4994192;28;20076;-89
2021/03/17 05:12:05;;;;;;;1.65;1.55;;;6.40;83.00;;;;;;4994116;28;20031;-88
2021/03/17 05:14:33;;;;;;;1.30;1.20;;;6.40;83.00;;;;;;4994530;28;20018;-91
2021/03/17 05:17:01;;;;;;;1.30;1.20;;;6.40;83.00;;;;;;4994924;28;20033;-90
2021/03/17 05:19:29;;;;;;;1.40;1.20;;;6.40;83.10;;;;;;4994843;28;20055;-90
2021/03/17 05:21:56;;;;;;;1.65;1.55;;;6.40;83.10;;;;;;4994651;28;20019;-88
2021/03/17 05:24:23;;;;;;;1.65;1.55;;;6.40;83.10;;;;;;4977947;28;20548;-90
2021/03/17 05:26:50;;;;;;;1.20;1.10;;;6.30;83.30;;;;;;4983568;28;20548;-88
2021/03/17 05:29:19;;;;;;;1.00;1.00;;;6.30;84.10;;;;;;4990599;28;20029;-87
2021/03/17 05:31:46;;;;;;;1.58;1.20;;;6.30;83.50;;;;;;4991394;28;20038;-87
2021/03/17 05:34:12;;;;;;;1.10;1.08;;;6.30;83.40;;;;;;4992194;28;20098;-88
2021/03/17 05:36:38;;;;;;;1.10;1.10;;;6.30;83.40;;;;;;4979184;28;20101;-87
2021/03/17 05:39:03;;;;;;;1.40;1.30;;;6.30;83.40;;;;;;4990082;28;20573;-87
2021/03/17 05:41:30;;;;;;;1.17;1.08;;;6.30;84.00;;;;;;4988610;28;20039;-86
2021/03/17 05:43:58;;;;;;;1.10;1.10;;;6.30;83.50;;;;;;4980771;28;20505;-89
2021/03/17 05:46:24;;;;;;;1.23;1.10;;;6.30;83.40;;;;;;4985236;28;20042;-87
2021/03/17 05:48:50;;;;;;;1.20;1.10;;;6.30;83.50;;;;;;4982052;28;20021;-87
2021/03/17 05:51:16;;;;;;;1.23;1.15;;;6.30;83.50;;;;;;4985548;28;20824;-88
2021/03/17 05:53:43;;;;;;;1.60;1.40;;;6.30;83.50;;;;;;4986429;28;20030;-87
2021/03/17 05:56:10;;;;;;;1.50;1.40;;;6.30;83.60;;;;;;4987938;28;20101;-88
2021/03/17 05:58:36;;;;;;;1.70;1.60;;;6.20;83.60;;;;;;4988306;28;20110;-86
2021/03/17 06:01:01;;;;;;;2.35;1.35;;;6.20;83.60;;;;;;4987028;28;20129;-86
2021/03/17 06:03:30;;;;;;;2.40;1.50;;;6.30;83.70;;;;;;4986111;28;20105;-86
2021/03/17 06:05:56;;;;;;;1.63;1.30;;;6.30;83.60;;;;;;4986926;28;20567;-87
2021/03/17 06:08:29;;;;;;;1.70;1.45;;;6.20;83.70;;;;;;4989423;28;20480;-87
2021/03/17 06:10:55;;;;;;;;;;;6.30;83.70;;;;;;4989104;28;20034;-87
2021/03/17 06:13:25;;;;;;;1.50;1.40;;;6.30;83.50;;;;;;4988283;28;19945;-88
2021/03/17 06:16:00;;;;;;;1.52;1.42;;;6.20;83.50;;;;;;4990811;28;20038;-88
2021/03/17 06:18:32;;;;;;;1.30;1.20;;;6.20;83.60;;;;;;4991131;28;20551;-88
2021/03/17 06:20:58;;;;;;;1.75;1.40;;;6.30;83.60;;;;;;4987191;28;20064;-86
2021/03/17 06:23:24;;;;;;;1.80;1.55;;;6.30;83.50;;;;;;4986155;28;20042;-88
2021/03/17 06:25:51;;;;;;;1.58;1.35;;;6.30;83.50;;;;;;4984511;28;20656;-86
2021/03/17 06:28:17;;;;;;;1.52;1.42;;;6.30;83.50;;;;;;4991613;28;20019;-87
2021/03/17 06:30:44;;;;;;;2.30;1.17;;;6.30;83.40;;;;;;4979083;28;20080;-87
2021/03/17 06:33:10;;;;;;;2.00;1.40;;;6.30;83.40;;;;;;4987486;28;20080;-87
2021/03/17 06:35:35;;;;;;;2.55;1.45;;;6.30;83.40;;;;;;4985782;28;20026;-87
2021/03/17 06:38:01;;;;;;;1.55;1.45;;;6.30;83.40;;;;;;4985228;28;20026;-87
2021/03/17 06:40:36;;;;;;;3.05;1.60;;;6.30;83.40;;;;;;4985174;28;20023;-87
2021/03/17 06:43:09;;;;;;;1.95;1.60;;;6.30;83.40;;;;;;4987679;28;20034;-88
2021/03/17 06:45:46;;;;;;;1.98;1.23;;;6.30;83.40;;;;;;4980919;28;20420;-88
2021/03/17 06:48:29;;;;;;;1.35;1.20;;;6.30;83.40;;;;;;4986615;28;20019;-89
2021/03/17 06:51:04;;;;;;;1.80;1.40;;;6.30;83.40;;;;;;4988273;28;20026;-87
2021/03/17 06:53:45;;;;;;;1.60;1.50;;;6.30;83.40;;;;;;4988798;28;20485;-89
2021/03/17 06:56:18;;;;;;;1.50;1.40;;;6.30;83.40;;;;;;4984161;28;20080;-90
2021/03/17 06:58:50;;;;;;;1.88;1.35;;;6.20;83.50;;;;;;4987418;28;20023;-90
2021/03/17 07:01:36;;;;;;;1.38;1.10;;;6.20;83.50;;;;;;4988439;28;20113;-86
2021/03/17 07:04:19;;;;;;;1.75;1.33;;;6.20;83.50;;;;;;4988958;28;20687;-86
2021/03/17 07:06:47;;;;;;;1.38;1.10;;;6.20;83.30;;;;;;4986346;28;20125;-85
2021/03/17 07:09:24;;;;;;;1.90;1.10;;;6.30;83.20;;;;;;4975795;28;20031;-86
2021/03/17 07:11:52;;;;;;;1.30;1.10;;;6.30;83.10;;;;;;4985817;28;20612;-86
2021/03/17 07:14:26;;;;;;;0.88;0.88;;;6.40;83.00;;;;;;4980683;28;20050;-86
2021/03/17 07:16:54;;;;;;;0.85;0.85;;;6.40;82.90;;;;;;4986737;28;20469;-88
2021/03/17 07:19:35;;;;;;;1.45;1.20;;;6.60;82.60;;;;;;4974124;28;20497;-86
2021/03/17 07:22:15;;;;;;;1.67;1.25;;;6.70;82.40;;;;;;4984057;28;20054;-86
2021/03/17 07:24:44;;;;;;;1.98;1.35;;;6.80;82.10;;;;;;4987905;28;20030;-86
2021/03/17 07:27:23;;;;;;;1.70;1.00;;;6.90;81.80;;;;;;4978310;28;20070;-88
2021/03/17 07:30:09;;;;;;;1.20;1.00;;;6.90;81.70;;;;;;4975178;28;20394;-88
2021/03/17 07:33:02;;;;;;;2.00;1.10;;;7.10;81.40;;;;;;4991081;28;20026;-86
2021/03/17 07:35:34;;;;;;;1.88;1.33;;;7.00;81.00;;;;;;4978930;28;20473;-85
2021/03/17 07:38:10;;;;;;;1.58;1.25;;;6.90;80.80;;;;;;4991120;28;20030;-87
2021/03/17 07:40:38;;;;;;;1.25;1.00;;;7.00;80.60;;;;;;4992697;28;20026;-89
2021/03/17 07:43:05;;;;;;;3.03;1.02;;;7.10;80.30;;;;;;4989001;28;20453;-87
2021/03/17 07:45:33;;;;;;;3.08;0.98;;;7.10;79.90;;;;;;4990233;28;20018;-87
2021/03/17 07:48:02;;;;;;;1.95;1.10;;;7.10;80.00;;;;;;4993799;28;20030;-85
2021/03/17 07:50:30;;;;;;;2.70;1.20;;;7.10;79.90;;;;;;4991835;28;20474;-89
2021/03/17 07:53:00;;;;;;;1.70;1.20;;;7.10;80.00;;;;;;4993689;28;20052;-89
2021/03/17 07:55:28;;;;;;;3.55;1.30;;;7.00;79.80;;;;;;4993005;28;20026;-89
2021/03/17 07:57:56;;;;;;;3.03;1.30;;;7.00;79.80;;;;;;4993875;28;20030;-89
2021/03/17 08:00:23;;;;;;;2.15;1.00;;;7.00;79.60;;;;;;4989626;28;20019;-88
2021/03/17 08:02:49;;;;;;;3.30;1.20;;;7.10;79.50;;;;;;4992227;28;20344;-88
2021/03/17 08:05:15;;;;;;;2.08;0.95;;;7.00;78.90;;;;;;4990648;28;20059;-87
2021/03/17 08:07:41;;;;;;;2.33;1.20;;;7.10;79.20;;;;;;4986299;28;20038;-88
2021/03/17 08:10:08;;;;;;;1.17;0.80;;;7.20;78.90;;;;;;4992891;28;20027;-88
2021/03/17 08:12:34;;;;;;;4.38;1.42;;;7.20;78.80;;;;;;4991243;28;20113;-89
2021/03/17 08:15:01;;;;;;;2.88;1.27;;;7.20;78.50;;;;;;4991271;28;20601;-87
2021/03/17 08:17:35;;;;;;;1.77;1.10;;;7.10;78.50;;;;;;4989788;28;20026;-87
2021/03/17 08:20:15;;;;;;;2.05;1.10;;;7.10;78.80;;;;;;4985531;28;20029;-89
2021/03/17 08:22:41;;;;;;;2.65;1.05;;;7.00;78.80;;;;;;4989456;28;20045;-90
2021/03/17 08:25:08;;;;;;;3.35;1.30;;;7.00;78.90;;;;;;4987350;28;20584;-90
2021/03/17 08:27:34;;;;;;;3.95;1.15;;;7.10;78.90;;;;;;4987816;28;20031;-90
2021/03/17 08:30:10;;;;;;;2.28;0.80;;;7.10;78.90;;;;;;4983742;28;20015;-89
2021/03/17 08:33:00;;;;;;;2.35;0.90;;;7.20;78.90;;;;;;4986376;28;20081;-90
2021/03/17 08:35:58;;;;;;;1.55;0.90;;;7.30;78.50;;;;;;4993207;28;20034;-91
2021/03/17 08:38:49;;;;;;;2.72;1.00;;;7.30;78.30;;;;;;4994257;28;20038;-89
2021/03/17 08:41:36;;;;;;;3.55;1.33;;;7.60;77.90;;;;;;4991212;28;20115;-92
2021/03/17 08:44:22;;;;;;;1.67;1.10;;;7.70;77.50;;;;;;4984918;28;20026;-92
2021/03/17 08:46:48;;;;;;;4.88;1.38;;;7.70;76.80;;;;;;4987773;28;20061;-91
2021/03/17 08:49:37;;;;;;;1.75;0.90;;;7.60;76.20;;;;;;4992012;28;20469;-89
2021/03/17 08:52:08;;;;;;;2.30;0.90;;;7.40;76.00;;;;;;4991773;28;20026;-90
2021/03/17 08:54:34;;;;;;;1.13;0.90;;;7.40;76.40;;;;;;4987667;28;20022;-91
2021/03/17 08:57:02;;;;;;;3.38;1.00;;;7.40;76.70;;;;;;4992380;28;20539;-94
2021/03/17 08:59:43;;;;;;;3.22;1.00;;;7.30;76.70;;;;;;4995381;28;20022;-94
2021/03/17 09:02:20;;;;;;;2.55;1.25;;;7.30;76.90;;;;;;4993383;28;20035;-91
2021/03/17 09:04:58;;;;;;;2.20;0.93;;;7.20;77.10;;;;;;4981208;28;20041;-94
2021/03/17 09:07:27;;;;;;;2.47;1.00;;;7.20;77.20;;;;;;4978028;28;20418;-95
2021/03/17 09:10:06;;;;;;;1.42;0.73;;;7.30;77.40;;;;;;4987354;28;20030;-92
2021/03/17 09:12:37;;;;;;;2.60;1.00;;;7.30;77.40;;;;;;4985073;28;20031;-92
2021/03/17 09:15:14;;;;;;;2.13;0.90;;;7.30;77.50;;;;;;4986097;28;20033;-93
2021/03/17 09:17:51;;;;;;;3.05;1.05;;;7.20;77.60;;;;;;4995110;28;20026;-92
2021/03/17 09:20:37;;;;;;;2.40;1.05;;;7.10;77.80;;;;;;4985075;28;20023;-92
2021/03/17 09:23:16;;;;;;;1.50;0.90;;;7.00;78.00;;;;;;4989261;28;20038;-95
2021/03/17 09:25:49;;;;;;;1.95;1.02;;;6.90;78.40;;;;;;4993248;28;20035;-92
2021/03/17 09:28:36;;;;;;;1.05;0.70;;;6.80;78.50;;;;;;4990380;28;20019;-94
2021/03/17 09:31:05;;;;;;;1.65;0.80;;;6.80;78.80;;;;;;4983744;28;20034;-94
2021/03/17 09:33:32;;;;;;;1.73;0.80;;;6.90;78.90;;;;;;4993826;28;20030;-94
2021/03/17 09:36:19;;;;;;;1.58;0.90;;;7.00;78.80;;;;;;4993828;28;20061;-92
2021/03/17 09:38:47;;;;;;;1.67;0.85;;;7.00;78.60;;;;;;4991320;28;20033;-94
2021/03/17 09:41:20;;;;;;;3.78;1.33;;;6.90;78.80;;;;;;4989570;28;20033;-90
2021/03/17 09:43:51;;;;;;;2.55;1.00;;;6.90;79.10;;;;;;4991396;28;20033;-93
2021/03/17 09:46:28;;;;;;;2.50;1.40;;;7.00;79.30;;;;;;4993248;28;20520;-92
2021/03/17 09:48:56;;;;;;;1.85;1.00;;;7.00;79.40;;;;;;4994576;28;20037;-92
2021/03/17 09:51:25;;;;;;;2.50;1.27;;;7.20;79.40;;;;;;4997631;28;20106;-92
2021/03/17 09:53:52;;;;;;;2.63;1.23;;;7.30;78.90;;;;;;4997514;28;20030;-93
2021/03/17 09:56:50;;;;;;;2.00;1.10;;;7.40;78.80;;;;;;4989382;28;20633;-91
2021/03/17 09:59:19;;;;;;;3.88;1.23;;;7.60;78.30;;;;;;4976367;28;20014;-94
2021/03/17 10:01:57;;;;;;;2.60;1.10;;;7.70;77.90;;;;;;4976452;28;20057;-96
2021/03/17 10:04:43;;;;;;;3.22;1.20;;;7.70;77.20;;;;;;4996884;28;20027;-96
2021/03/17 10:07:32;;;;;;;2.53;1.20;;;7.70;76.40;;;;;;5005987;28;20026;-96
2021/03/17 10:09:59;;;;;;;3.53;1.10;;;7.80;76.20;;;;;;4970024;28;20022;-96
2021/03/17 10:12:27;;;;;;;2.40;1.13;;;7.80;75.50;;;;;;4992477;28;20458;-94
2021/03/17 10:15:06;;;;;;;3.15;1.00;;;7.70;74.40;;;;;;4981423;28;20046;-93
2021/03/17 10:17:32;;;;;;;3.55;1.08;;;7.70;74.60;;;;;;4991765;28;20022;-95
2021/03/17 10:20:17;;;;;;;3.75;0.90;;;7.80;74.50;;;;;;4996676;28;20031;-94
2021/03/17 10:22:44;;;;;;;2.80;0.90;;;7.90;74.40;;;;;;4995826;28;20022;-94
2021/03/17 10:25:13;;;;;;;3.42;1.00;;;7.90;73.90;;;;;;4982525;28;20485;-96
2021/03/17 10:27:41;;;;;;;3.20;1.10;;;7.90;73.60;;;;;;4998671;28;20474;-94
2021/03/17 10:30:12;;;;;;;2.60;0.93;;;8.00;73.80;;;;;;4992789;28;20385;-93
2021/03/17 10:32:39;;;;;;;2.75;1.20;;;8.10;73.70;;;;;;4994679;28;20504;-95
2021/03/17 10:35:16;;;;;;;3.20;1.10;;;8.20;73.40;;;;;;4995491;28;20049;-94
2021/03/17 10:37:42;;;;;;;4.10;1.20;;;8.10;72.60;;;;;;4996544;28;20037;-94
2021/03/17 10:40:12;;;;;;;2.45;1.00;;;8.10;72.40;;;;;;4996587;28;20771;-94
2021/03/17 10:42:48;;;;;;;3.08;1.25;;;8.10;72.40;;;;;;4995249;28;20029;-94
2021/03/17 10:45:40;;;;;;;4.05;1.20;;;8.10;72.30;;;;;;4988832;28;20509;-95
2021/03/17 10:48:17;;;;;;;3.92;1.13;;;8.20;71.90;;;;;;4996030;28;20038;-93
2021/03/17 10:50:44;;;;;;;3.67;1.00;;;8.20;71.80;;;;;;4993885;28;20037;-94
2021/03/17 10:53:18;;;;;;;2.50;1.27;;;8.30;71.50;;;;;;4994308;28;20023;-91
2021/03/17 10:55:48;;;;;;;2.08;1.00;;;8.30;70.70;;;;;;4991978;28;20093;-93
2021/03/17 10:58:22;;;;;;;3.22;1.17;;;8.30;70.30;;;;;;4994307;28;20019;-94
2021/03/17 11:00:51;;;;;;;1.75;0.95;;;8.30;69.40;;;;;;4997306;28;20038;-93
2021/03/17 11:03:30;;;;;;;3.15;0.90;;;8.30;69.40;;;;;;4999234;28;20125;-94
2021/03/17 11:06:16;;;;;;;2.40;1.00;;;8.50;69.90;;;;;;4996963;28;20034;-93
2021/03/17 11:09:01;;;;;;;2.88;1.00;;;8.60;69.70;;;;;;4993326;28;20443;-94
2021/03/17 11:11:27;;;;;;;2.30;0.88;;;8.60;69.50;;;;;;4988870;28;20035;-94
2021/03/17 11:13:53;;;;;;;4.25;1.35;;;8.60;69.40;;;;;;4995953;28;20029;-93
2021/03/17 11:16:32;;;;;;;3.95;1.15;;;8.40;68.30;;;;;;4995424;28;20050;-93
2021/03/17 11:19:00;;;;;;;1.58;0.75;;;8.30;68.70;;;;;;4985349;28;20023;-94
2021/03/17 11:21:30;;;;;;;3.58;1.08;;;8.20;69.30;;;;;;4996333;28;20037;-94
2021/03/17 11:24:00;;;;;;;2.47;1.20;;;8.20;69.50;;;;;;4997811;28;20121;-95
2021/03/17 11:26:34;;;;;;;2.42;1.02;;;8.10;69.60;;;;;;4994217;28;20030;-94
2021/03/17 11:29:02;;;;;;;2.75;1.20;;;8.20;70.10;;;;;;4975044;28;20034;-93
2021/03/17 11:31:29;;;;;;;4.85;1.50;;;8.40;70.30;;;;;;4981200;28;20022;-92
2021/03/17 11:33:56;;;;;;;5.03;1.48;;;8.40;69.70;;;;;;4987211;28;20104;-93
2021/03/17 11:36:23;;;;;;;4.22;1.42;;;8.60;69.50;;;;;;4994723;28;20469;-94
2021/03/17 11:38:50;;;;;;;2.83;1.23;;;8.70;69.10;;;;;;5001824;28;20030;-92
2021/03/17 11:41:17;;;;;;;3.67;1.10;;;8.70;69.00;;;;;;5000967;28;20034;-93
2021/03/17 11:43:43;;;;;;;2.65;1.05;;;8.80;69.10;;;;;;4985988;28;20061;-92
2021/03/17 11:46:09;;;;;;;3.45;1.38;;;8.70;69.10;;;;;;4994617;28;20050;-93
2021/03/17 11:48:35;;;;;;;4.03;1.27;;;8.70;69.10;;;;;;4995809;28;20023;-92
2021/03/17 11:51:04;;;;;;;3.60;1.40;;;8.60;69.30;;;;;;4994925;28;20022;-91
2021/03/17 11:57:00;;;;;;;2.90;1.08;;;8.20;70.10;;;;;;5001419;28;20058;-92
2021/03/17 11:59:26;;;;;;;2.63;1.05;;;8.10;70.80;;;;;;4994140;28;20037;-92
2021/03/17 12:01:52;;;;;;;2.35;0.95;;;8.00;71.20;;;;;;4993113;28;20067;-90
2021/03/17 12:04:17;;;;;;;1.88;0.93;;;7.90;71.50;;;;;;5013499;28;20026;-93
2021/03/17 12:06:43;;;;;;;2.92;1.15;;;7.80;71.90;;;;;;5011540;28;20107;-91
2021/03/17 12:09:09;;;;;;;1.27;0.90;;;7.80;72.30;;;;;;4997397;28;20027;-92
2021/03/17 12:12:04;;;;;;;2.97;1.02;;;7.80;72.50;;;;;;5001518;28;20026;-91
2021/03/17 12:14:30;;;;;;;1.67;1.00;;;7.80;72.90;;;;;;5009385;28;20019;-92
2021/03/17 12:16:55;;;;;;;2.08;0.98;;;7.90;73.10;;;;;;4999297;28;20030;-92
2021/03/17 12:19:21;;;;;;;1.67;0.70;;;7.90;73.30;;;;;;4993906;28;20053;-92
2021/03/17 12:21:46;;;;;;;2.38;0.77;;;7.90;73.30;;;;;;5005631;28;20023;-92
2021/03/17 12:24:12;;;;;;;2.17;0.93;;;8.00;73.50;;;;;;5015496;28;20073;-92
2021/03/17 12:26:41;;;;;;;1.13;0.88;;;8.00;73.60;;;;;;5011389;28;20026;-92
2021/03/17 12:29:06;;;;;;;2.92;0.88;;;8.00;73.80;;;;;;5016341;28;20054;-92
2021/03/17 12:31:32;;;;;;;1.33;0.73;;;8.00;73.70;;;;;;5011742;28;20046;-92
2021/03/17 12:33:58;;;;;;;1.38;1.10;;;8.10;73.70;;;;;;5006751;28;20129;-93
2021/03/17 12:36:23;;;;;;;2.70;1.00;;;8.00;73.80;;;;;;5001205;28;20019;-90
2021/03/17 12:38:57;;;;;;;2.55;0.93;;;8.00;74.00;;;;;;4994747;28;20059;-90
2021/03/17 12:41:23;;;;;;;0.70;0.70;;;7.90;74.30;;;;;;4997664;28;20030;-91
2021/03/17 12:43:49;;;;;;;1.23;0.70;;;8.00;74.50;;;;;;4996598;28;20033;-91
2021/03/17 12:46:14;;;;;;;1.85;0.90;;;8.00;74.30;;;;;;4995541;28;20569;-92
2021/03/17 12:48:40;;;;;;;1.73;0.90;;;7.90;74.30;;;;;;4997197;28;20088;-91
2021/03/17 12:51:05;;;;;;;1.10;0.90;;;7.90;74.50;;;;;;5002191;28;21175;-92
2021/03/17 12:53:31;;;;;;;1.83;0.90;;;7.80;74.70;;;;;;4996272;28;20054;-91
2021/03/17 12:56:04;;;;;;;2.15;1.23;;;7.80;75.00;;;;;;4996213;28;20069;-92
2021/03/17 12:58:30;;;;;;;1.40;1.00;;;7.70;75.50;;;;;;4987011;28;20100;-90
2021/03/17 13:01:01;;;;;;;1.33;0.70;;;7.60;75.70;;;;;;4985307;28;20800;-88
2021/03/17 13:03:28;;;;;;;1.75;0.80;;;7.60;75.90;;;;;;4979905;28;20053;-91
2021/03/17 13:05:53;;;;;;;1.00;0.90;;;7.70;76.00;;;;;;4993292;28;20061;-92
2021/03/17 13:08:19;;;;;;;0.70;0.60;;;7.80;75.80;;;;;;4994262;28;20027;-90
2021/03/17 13:10:44;;;;;;;1.52;0.70;;;7.90;75.70;;;;;;4982102;28;20110;-90
2021/03/17 13:13:10;;;;;;;0.82;0.63;;;8.00;75.70;;;;;;4987416;28;20051;-91
2021/03/17 13:15:36;;;;;;;1.27;0.57;;;8.00;75.70;;;;;;4993894;28;20014;-89
2021/03/17 13:18:01;;;;;;;1.90;0.73;;;8.20;75.70;;;;;;4992795;28;20429;-90